sensor_id;sensor_type;location;lat;lon;timestamp;P1;durP1;ratioP1;P2;durP2;ratioP2
24273;SDS011;12392;42.678;23.380;2023-04-25T00:01:47;2.17;;;1.98;;
24273;SDS011;12392;42.678;23.380;2023-04-25T00:04:13;4.10;;;2.55;;
24273;SDS011;12392;42.678;23.380;2023-04-25T00:06:38;5.07;;;3.53;;
24273;SDS011;12392;42.678;23.380;2023-04-25T00:09:04;3.92;;;2.50;;
24273;SDS011;12392;42.678;23.380;2023-04-25T00:11:32;4.47;;;2.45;;
24273;SDS011;12392;42.678;23.380;2023-04-25T00:13:58;2.10;;;1.80;;
24273;SDS011;12392;42.678;23.380;2023-04-25T00:16:26;3.63;;;2.53;;
24273;SDS011;12392;42.678;23.380;2023-04-25T00:18:53;3.80;;;2.20;;
24273;SDS011;12392;42.678;23.380;2023-04-25T00:21:19;2.88;;;2.45;;
24273;SDS011;12392;42.678;23.380;2023-04-25T00:23:46;3.15;;;2.17;;
24273;SDS011;12392;42.678;23.380;2023-04-25T00:26:11;2.90;;;2.25;;
24273;SDS011;12392;42.678;23.380;2023-04-25T00:28:38;3.50;;;2.63;;
24273;SDS011;12392;42.678;23.380;2023-04-25T00:31:04;5.15;;;2.53;;
24273;SDS011;12392;42.678;23.380;2023-04-25T00:33:30;3.53;;;2.63;;
24273;SDS011;12392;42.678;23.380;2023-04-25T00:35:56;3.47;;;2.88;;
24273;SDS011;12392;42.678;23.380;2023-04-25T00:38:21;4.43;;;3.33;;
24273;SDS011;12392;42.678;23.380;2023-04-25T00:40:47;3.88;;;2.60;;
24273;SDS011;12392;42.678;23.380;2023-04-25T00:43:13;5.82;;;1.92;;
24273;SDS011;12392;42.678;23.380;2023-04-25T00:45:39;2.83;;;2.22;;
24273;SDS011;12392;42.678;23.380;2023-04-25T00:48:05;3.28;;;2.22;;
24273;SDS011;12392;42.678;23.380;2023-04-25T00:50:33;2.42;;;1.98;;
24273;SDS011;12392;42.678;23.380;2023-04-25T00:52:59;2.22;;;1.95;;
24273;SDS011;12392;42.678;23.380;2023-04-25T00:55:26;1.95;;;1.75;;
24273;SDS011;12392;42.678;23.380;2023-04-25T00:57:52;2.40;;;2.20;;
24273;SDS011;12392;42.678;23.380;2023-04-25T01:00:18;4.15;;;2.20;;
24273;SDS011;12392;42.678;23.380;2023-04-25T01:02:44;2.80;;;2.08;;
24273;SDS011;12392;42.678;23.380;2023-04-25T01:05:10;2.47;;;1.80;;
24273;SDS011;12392;42.678;23.380;2023-04-25T01:07:36;3.42;;;1.83;;
24273;SDS011;12392;42.678;23.380;2023-04-25T01:10:03;2.83;;;1.90;;
24273;SDS011;12392;42.678;23.380;2023-04-25T01:12:29;4.07;;;2.10;;
24273;SDS011;12392;42.678;23.380;2023-04-25T01:14:55;3.35;;;1.85;;
24273;SDS011;12392;42.678;23.380;2023-04-25T01:17:21;3.80;;;2.15;;
24273;SDS011;12392;42.678;23.380;2023-04-25T01:19:47;2.83;;;2.30;;
24273;SDS011;12392;42.678;23.380;2023-04-25T01:22:14;3.38;;;2.28;;
24273;SDS011;12392;42.678;23.380;2023-04-25T01:24:40;5.70;;;3.30;;
24273;SDS011;12392;42.678;23.380;2023-04-25T01:27:06;4.88;;;2.88;;
24273;SDS011;12392;42.678;23.380;2023-04-25T01:29:32;4.40;;;3.45;;
24273;SDS011;12392;42.678;23.380;2023-04-25T01:31:58;7.03;;;3.20;;
24273;SDS011;12392;42.678;23.380;2023-04-25T01:34:24;7.10;;;3.92;;
24273;SDS011;12392;42.678;23.380;2023-04-25T01:36:50;5.15;;;3.80;;
24273;SDS011;12392;42.678;23.380;2023-04-25T01:39:19;6.85;;;4.30;;
24273;SDS011;12392;42.678;23.380;2023-04-25T01:41:45;4.80;;;3.78;;
24273;SDS011;12392;42.678;23.380;2023-04-25T01:44:11;8.60;;;4.75;;
24273;SDS011;12392;42.678;23.380;2023-04-25T01:46:37;7.28;;;4.65;;
24273;SDS011;12392;42.678;23.380;2023-04-25T01:49:03;8.43;;;3.83;;
24273;SDS011;12392;42.678;23.380;2023-04-25T01:51:29;3.15;;;2.80;;
24273;SDS011;12392;42.678;23.380;2023-04-25T01:53:55;6.13;;;3.00;;
24273;SDS011;12392;42.678;23.380;2023-04-25T01:56:22;5.20;;;2.88;;
24273;SDS011;12392;42.678;23.380;2023-04-25T01:58:48;5.55;;;3.65;;
24273;SDS011;12392;42.678;23.380;2023-04-25T02:01:13;6.75;;;3.85;;
24273;SDS011;12392;42.678;23.380;2023-04-25T02:03:39;7.30;;;3.42;;
24273;SDS011;12392;42.678;23.380;2023-04-25T02:06:05;5.82;;;3.00;;
24273;SDS011;12392;42.678;23.380;2023-04-25T02:08:31;5.32;;;3.63;;
24273;SDS011;12392;42.678;23.380;2023-04-25T02:10:57;4.65;;;3.65;;
24273;SDS011;12392;42.678;23.380;2023-04-25T02:13:22;9.65;;;3.30;;
24273;SDS011;12392;42.678;23.380;2023-04-25T02:15:48;6.10;;;2.95;;
24273;SDS011;12392;42.678;23.380;2023-04-25T02:18:14;3.88;;;3.25;;
24273;SDS011;12392;42.678;23.380;2023-04-25T02:20:41;4.07;;;3.10;;
24273;SDS011;12392;42.678;23.380;2023-04-25T02:23:07;4.57;;;2.85;;
24273;SDS011;12392;42.678;23.380;2023-04-25T02:25:33;3.58;;;3.25;;
24273;SDS011;12392;42.678;23.380;2023-04-25T02:27:59;3.55;;;3.08;;
24273;SDS011;12392;42.678;23.380;2023-04-25T02:30:24;5.97;;;3.10;;
24273;SDS011;12392;42.678;23.380;2023-04-25T02:32:50;4.90;;;3.67;;
24273;SDS011;12392;42.678;23.380;2023-04-25T02:35:16;4.85;;;3.28;;
24273;SDS011;12392;42.678;23.380;2023-04-25T02:37:41;4.22;;;3.25;;
24273;SDS011;12392;42.678;23.380;2023-04-25T02:40:07;3.88;;;2.90;;
24273;SDS011;12392;42.678;23.380;2023-04-25T02:42:34;4.05;;;3.03;;
24273;SDS011;12392;42.678;23.380;2023-04-25T02:44:59;5.18;;;3.55;;
24273;SDS011;12392;42.678;23.380;2023-04-25T02:47:25;6.28;;;3.20;;
24273;SDS011;12392;42.678;23.380;2023-04-25T02:49:51;4.05;;;3.40;;
24273;SDS011;12392;42.678;23.380;2023-04-25T02:52:17;3.92;;;3.38;;
24273;SDS011;12392;42.678;23.380;2023-04-25T02:54:42;6.68;;;3.83;;
24273;SDS011;12392;42.678;23.380;2023-04-25T02:57:08;3.92;;;3.03;;
24273;SDS011;12392;42.678;23.380;2023-04-25T02:59:34;4.55;;;3.63;;
24273;SDS011;12392;42.678;23.380;2023-04-25T03:02:00;6.00;;;3.45;;
24273;SDS011;12392;42.678;23.380;2023-04-25T03:04:26;4.03;;;3.47;;
24273;SDS011;12392;42.678;23.380;2023-04-25T03:06:52;4.85;;;3.50;;
24273;SDS011;12392;42.678;23.380;2023-04-25T03:09:18;5.45;;;3.50;;
24273;SDS011;12392;42.678;23.380;2023-04-25T03:11:44;7.80;;;3.53;;
24273;SDS011;12392;42.678;23.380;2023-04-25T03:14:10;5.30;;;3.45;;
24273;SDS011;12392;42.678;23.380;2023-04-25T03:16:37;4.72;;;3.70;;
24273;SDS011;12392;42.678;23.380;2023-04-25T03:19:03;4.95;;;3.40;;
24273;SDS011;12392;42.678;23.380;2023-04-25T03:21:29;4.45;;;3.50;;
24273;SDS011;12392;42.678;23.380;2023-04-25T03:24:00;5.75;;;3.88;;
24273;SDS011;12392;42.678;23.380;2023-04-25T03:26:26;4.63;;;4.03;;
24273;SDS011;12392;42.678;23.380;2023-04-25T03:28:51;4.88;;;3.47;;
24273;SDS011;12392;42.678;23.380;2023-04-25T03:31:17;6.63;;;3.30;;
24273;SDS011;12392;42.678;23.380;2023-04-25T03:33:43;5.63;;;4.25;;
24273;SDS011;12392;42.678;23.380;2023-04-25T03:36:08;5.78;;;4.07;;
24273;SDS011;12392;42.678;23.380;2023-04-25T03:38:34;8.13;;;4.75;;
24273;SDS011;12392;42.678;23.380;2023-04-25T03:41:00;5.00;;;4.05;;
24273;SDS011;12392;42.678;23.380;2023-04-25T03:43:26;5.25;;;4.30;;
24273;SDS011;12392;42.678;23.380;2023-04-25T03:45:52;7.60;;;4.30;;
24273;SDS011;12392;42.678;23.380;2023-04-25T03:48:18;5.18;;;4.28;;
24273;SDS011;12392;42.678;23.380;2023-04-25T03:50:46;4.35;;;3.78;;
24273;SDS011;12392;42.678;23.380;2023-04-25T03:53:12;5.30;;;4.07;;
24273;SDS011;12392;42.678;23.380;2023-04-25T03:55:37;5.50;;;4.43;;
24273;SDS011;12392;42.678;23.380;2023-04-25T03:58:03;5.43;;;4.60;;
24273;SDS011;12392;42.678;23.380;2023-04-25T04:00:29;7.10;;;4.80;;
24273;SDS011;12392;42.678;23.380;2023-04-25T04:02:55;7.53;;;4.57;;
24273;SDS011;12392;42.678;23.380;2023-04-25T04:05:21;6.22;;;5.18;;
24273;SDS011;12392;42.678;23.380;2023-04-25T04:07:47;5.97;;;4.70;;
24273;SDS011;12392;42.678;23.380;2023-04-25T04:10:13;5.43;;;4.22;;
24273;SDS011;12392;42.678;23.380;2023-04-25T04:12:38;7.05;;;5.00;;
24273;SDS011;12392;42.678;23.380;2023-04-25T04:15:04;6.10;;;4.88;;
24273;SDS011;12392;42.678;23.380;2023-04-25T04:17:31;4.75;;;4.10;;
24273;SDS011;12392;42.678;23.380;2023-04-25T04:19:57;5.35;;;4.47;;
24273;SDS011;12392;42.678;23.380;2023-04-25T04:22:23;6.40;;;4.07;;
24273;SDS011;12392;42.678;23.380;2023-04-25T04:24:49;4.10;;;3.15;;
24273;SDS011;12392;42.678;23.380;2023-04-25T04:27:15;5.10;;;3.63;;
24273;SDS011;12392;42.678;23.380;2023-04-25T04:29:42;7.78;;;3.58;;
24273;SDS011;12392;42.678;23.380;2023-04-25T04:32:08;5.00;;;3.67;;
24273;SDS011;12392;42.678;23.380;2023-04-25T04:34:34;3.97;;;3.33;;
24273;SDS011;12392;42.678;23.380;2023-04-25T04:37:00;3.42;;;3.13;;
24273;SDS011;12392;42.678;23.380;2023-04-25T04:39:26;5.13;;;3.78;;
24273;SDS011;12392;42.678;23.380;2023-04-25T04:41:52;6.70;;;5.15;;
24273;SDS011;12392;42.678;23.380;2023-04-25T04:44:18;6.00;;;4.80;;
24273;SDS011;12392;42.678;23.380;2023-04-25T04:46:48;9.48;;;6.57;;
24273;SDS011;12392;42.678;23.380;2023-04-25T04:49:14;5.90;;;4.95;;
24273;SDS011;12392;42.678;23.380;2023-04-25T04:51:40;6.43;;;4.63;;
24273;SDS011;12392;42.678;23.380;2023-04-25T04:54:06;12.57;;;9.25;;
24273;SDS011;12392;42.678;23.380;2023-04-25T04:56:31;7.88;;;5.53;;
24273;SDS011;12392;42.678;23.380;2023-04-25T04:58:58;5.55;;;4.50;;
24273;SDS011;12392;42.678;23.380;2023-04-25T05:01:24;17.52;;;11.07;;
24273;SDS011;12392;42.678;23.380;2023-04-25T05:03:50;7.97;;;5.65;;
24273;SDS011;12392;42.678;23.380;2023-04-25T05:06:17;5.90;;;4.65;;
24273;SDS011;12392;42.678;23.380;2023-04-25T05:08:44;7.30;;;5.65;;
24273;SDS011;12392;42.678;23.380;2023-04-25T05:11:09;6.30;;;5.55;;
24273;SDS011;12392;42.678;23.380;2023-04-25T05:13:36;7.38;;;5.80;;
24273;SDS011;12392;42.678;23.380;2023-04-25T05:16:02;9.15;;;6.88;;
24273;SDS011;12392;42.678;23.380;2023-04-25T05:18:27;8.75;;;6.63;;
24273;SDS011;12392;42.678;23.380;2023-04-25T05:20:53;10.20;;;7.00;;
24273;SDS011;12392;42.678;23.380;2023-04-25T05:23:19;10.02;;;7.60;;
24273;SDS011;12392;42.678;23.380;2023-04-25T05:25:44;11.18;;;7.57;;
24273;SDS011;12392;42.678;23.380;2023-04-25T05:28:11;11.40;;;7.50;;
24273;SDS011;12392;42.678;23.380;2023-04-25T05:30:37;9.75;;;6.53;;
24273;SDS011;12392;42.678;23.380;2023-04-25T05:33:03;13.40;;;8.45;;
24273;SDS011;12392;42.678;23.380;2023-04-25T05:35:29;11.02;;;8.10;;
24273;SDS011;12392;42.678;23.380;2023-04-25T05:37:55;14.13;;;9.13;;
24273;SDS011;12392;42.678;23.380;2023-04-25T05:40:21;9.73;;;7.10;;
24273;SDS011;12392;42.678;23.380;2023-04-25T05:42:46;7.82;;;5.75;;
24273;SDS011;12392;42.678;23.380;2023-04-25T05:45:12;8.27;;;5.53;;
24273;SDS011;12392;42.678;23.380;2023-04-25T05:47:38;16.88;;;13.13;;
24273;SDS011;12392;42.678;23.380;2023-04-25T05:50:25;8.15;;;5.80;;
24273;SDS011;12392;42.678;23.380;2023-04-25T05:52:50;7.95;;;4.65;;
24273;SDS011;12392;42.678;23.380;2023-04-25T05:55:16;8.60;;;5.65;;
24273;SDS011;12392;42.678;23.380;2023-04-25T05:57:41;14.93;;;9.18;;
24273;SDS011;12392;42.678;23.380;2023-04-25T06:00:10;23.48;;;14.40;;
24273;SDS011;12392;42.678;23.380;2023-04-25T06:02:40;23.85;;;13.73;;
24273;SDS011;12392;42.678;23.380;2023-04-25T06:05:06;8.82;;;5.32;;
24273;SDS011;12392;42.678;23.380;2023-04-25T06:07:32;14.48;;;8.65;;
24273;SDS011;12392;42.678;23.380;2023-04-25T06:10:00;3.42;;;2.80;;
24273;SDS011;12392;42.678;23.380;2023-04-25T06:12:26;4.38;;;2.92;;
24273;SDS011;12392;42.678;23.380;2023-04-25T06:14:52;4.75;;;3.45;;
24273;SDS011;12392;42.678;23.380;2023-04-25T06:17:17;6.38;;;3.45;;
24273;SDS011;12392;42.678;23.380;2023-04-25T06:19:44;5.60;;;3.65;;
24273;SDS011;12392;42.678;23.380;2023-04-25T06:22:09;8.88;;;6.20;;
24273;SDS011;12392;42.678;23.380;2023-04-25T06:24:35;6.40;;;3.20;;
24273;SDS011;12392;42.678;23.380;2023-04-25T06:27:01;4.88;;;2.40;;
24273;SDS011;12392;42.678;23.380;2023-04-25T06:29:27;5.65;;;2.10;;
24273;SDS011;12392;42.678;23.380;2023-04-25T06:31:53;6.85;;;4.85;;
24273;SDS011;12392;42.678;23.380;2023-04-25T06:34:19;4.18;;;3.10;;
24273;SDS011;12392;42.678;23.380;2023-04-25T06:36:44;3.33;;;2.85;;
24273;SDS011;12392;42.678;23.380;2023-04-25T06:39:10;5.57;;;2.83;;
24273;SDS011;12392;42.678;23.380;2023-04-25T06:41:36;5.25;;;3.13;;
24273;SDS011;12392;42.678;23.380;2023-04-25T06:44:02;2.95;;;2.42;;
24273;SDS011;12392;42.678;23.380;2023-04-25T06:46:30;4.15;;;2.63;;
24273;SDS011;12392;42.678;23.380;2023-04-25T06:48:55;4.68;;;2.20;;
24273;SDS011;12392;42.678;23.380;2023-04-25T06:51:21;3.90;;;3.00;;
24273;SDS011;12392;42.678;23.380;2023-04-25T06:53:47;9.68;;;7.10;;
24273;SDS011;12392;42.678;23.380;2023-04-25T06:56:13;6.85;;;3.33;;
24273;SDS011;12392;42.678;23.380;2023-04-25T06:58:38;8.50;;;4.53;;
24273;SDS011;12392;42.678;23.380;2023-04-25T07:01:04;4.70;;;3.95;;
24273;SDS011;12392;42.678;23.380;2023-04-25T07:03:30;10.10;;;3.10;;
24273;SDS011;12392;42.678;23.380;2023-04-25T07:05:56;5.50;;;3.88;;
24273;SDS011;12392;42.678;23.380;2023-04-25T07:08:22;9.63;;;6.22;;
24273;SDS011;12392;42.678;23.380;2023-04-25T07:10:47;5.60;;;3.90;;
24273;SDS011;12392;42.678;23.380;2023-04-25T07:13:14;4.93;;;3.80;;
24273;SDS011;12392;42.678;23.380;2023-04-25T07:15:41;5.63;;;3.53;;
24273;SDS011;12392;42.678;23.380;2023-04-25T07:18:13;5.57;;;3.78;;
24273;SDS011;12392;42.678;23.380;2023-04-25T07:20:39;3.30;;;2.70;;
24273;SDS011;12392;42.678;23.380;2023-04-25T07:23:04;5.07;;;2.80;;
24273;SDS011;12392;42.678;23.380;2023-04-25T07:25:30;3.55;;;2.88;;
24273;SDS011;12392;42.678;23.380;2023-04-25T07:27:56;3.67;;;3.15;;
24273;SDS011;12392;42.678;23.380;2023-04-25T07:30:22;4.28;;;2.67;;
24273;SDS011;12392;42.678;23.380;2023-04-25T07:32:48;3.83;;;3.10;;
24273;SDS011;12392;42.678;23.380;2023-04-25T07:35:15;4.28;;;3.30;;
24273;SDS011;12392;42.678;23.380;2023-04-25T07:37:41;5.00;;;3.50;;
24273;SDS011;12392;42.678;23.380;2023-04-25T07:40:07;4.35;;;3.42;;
24273;SDS011;12392;42.678;23.380;2023-04-25T07:42:34;4.45;;;2.70;;
24273;SDS011;12392;42.678;23.380;2023-04-25T07:45:00;3.63;;;3.00;;
24273;SDS011;12392;42.678;23.380;2023-04-25T07:47:27;4.43;;;2.50;;
24273;SDS011;12392;42.678;23.380;2023-04-25T07:50:02;3.80;;;2.75;;
24273;SDS011;12392;42.678;23.380;2023-04-25T07:52:28;2.50;;;1.90;;
24273;SDS011;12392;42.678;23.380;2023-04-25T07:54:54;5.07;;;2.60;;
24273;SDS011;12392;42.678;23.380;2023-04-25T07:57:20;2.95;;;2.38;;
24273;SDS011;12392;42.678;23.380;2023-04-25T07:59:45;5.07;;;2.75;;
24273;SDS011;12392;42.678;23.380;2023-04-25T08:02:11;7.72;;;4.10;;
24273;SDS011;12392;42.678;23.380;2023-04-25T08:04:37;6.03;;;4.82;;
24273;SDS011;12392;42.678;23.380;2023-04-25T08:07:02;4.00;;;3.00;;
24273;SDS011;12392;42.678;23.380;2023-04-25T08:09:28;3.92;;;3.08;;
24273;SDS011;12392;42.678;23.380;2023-04-25T08:11:58;3.83;;;3.28;;
24273;SDS011;12392;42.678;23.380;2023-04-25T08:14:31;8.68;;;4.57;;
24273;SDS011;12392;42.678;23.380;2023-04-25T08:17:06;6.88;;;3.55;;
24273;SDS011;12392;42.678;23.380;2023-04-25T08:19:31;6.80;;;4.18;;
24273;SDS011;12392;42.678;23.380;2023-04-25T08:21:58;5.18;;;2.80;;
24273;SDS011;12392;42.678;23.380;2023-04-25T08:24:28;7.35;;;5.32;;
24273;SDS011;12392;42.678;23.380;2023-04-25T08:26:57;4.10;;;3.20;;
24273;SDS011;12392;42.678;23.380;2023-04-25T08:29:23;15.35;;;11.27;;
24273;SDS011;12392;42.678;23.380;2023-04-25T08:31:50;5.03;;;2.90;;
24273;SDS011;12392;42.678;23.380;2023-04-25T08:34:18;6.38;;;2.50;;
24273;SDS011;12392;42.678;23.380;2023-04-25T08:36:45;3.53;;;3.00;;
24273;SDS011;12392;42.678;23.380;2023-04-25T08:39:10;4.43;;;2.60;;
24273;SDS011;12392;42.678;23.380;2023-04-25T08:41:36;4.70;;;2.38;;
24273;SDS011;12392;42.678;23.380;2023-04-25T08:44:03;5.30;;;2.97;;
24273;SDS011;12392;42.678;23.380;2023-04-25T08:46:29;8.48;;;3.60;;
24273;SDS011;12392;42.678;23.380;2023-04-25T08:48:58;4.75;;;2.80;;
24273;SDS011;12392;42.678;23.380;2023-04-25T08:51:26;2.40;;;2.20;;
24273;SDS011;12392;42.678;23.380;2023-04-25T08:53:53;5.13;;;3.55;;
24273;SDS011;12392;42.678;23.380;2023-04-25T08:56:18;6.65;;;4.55;;
24273;SDS011;12392;42.678;23.380;2023-04-25T08:58:50;11.93;;;6.68;;
24273;SDS011;12392;42.678;23.380;2023-04-25T09:01:16;12.82;;;8.75;;
24273;SDS011;12392;42.678;23.380;2023-04-25T09:03:43;14.02;;;8.93;;
24273;SDS011;12392;42.678;23.380;2023-04-25T09:06:10;13.77;;;7.20;;
24273;SDS011;12392;42.678;23.380;2023-04-25T09:08:36;9.65;;;6.60;;
24273;SDS011;12392;42.678;23.380;2023-04-25T09:11:02;11.93;;;5.75;;
24273;SDS011;12392;42.678;23.380;2023-04-25T09:13:28;11.15;;;6.05;;
24273;SDS011;12392;42.678;23.380;2023-04-25T09:15:55;7.57;;;5.90;;
24273;SDS011;12392;42.678;23.380;2023-04-25T09:18:22;8.27;;;5.03;;
24273;SDS011;12392;42.678;23.380;2023-04-25T09:20:52;6.55;;;4.30;;
24273;SDS011;12392;42.678;23.380;2023-04-25T09:23:18;6.65;;;3.88;;
24273;SDS011;12392;42.678;23.380;2023-04-25T09:25:47;5.80;;;4.05;;
24273;SDS011;12392;42.678;23.380;2023-04-25T09:28:13;4.20;;;3.40;;
24273;SDS011;12392;42.678;23.380;2023-04-25T09:30:39;6.15;;;3.40;;
24273;SDS011;12392;42.678;23.380;2023-04-25T09:33:05;2.80;;;2.53;;
24273;SDS011;12392;42.678;23.380;2023-04-25T09:35:36;7.55;;;2.75;;
24273;SDS011;12392;42.678;23.380;2023-04-25T09:38:07;3.92;;;2.92;;
24273;SDS011;12392;42.678;23.380;2023-04-25T09:40:33;7.82;;;3.47;;
24273;SDS011;12392;42.678;23.380;2023-04-25T09:42:59;3.75;;;2.58;;
24273;SDS011;12392;42.678;23.380;2023-04-25T09:45:25;4.45;;;2.90;;
24273;SDS011;12392;42.678;23.380;2023-04-25T09:47:55;9.50;;;6.07;;
24273;SDS011;12392;42.678;23.380;2023-04-25T09:50:22;4.88;;;2.47;;
24273;SDS011;12392;42.678;23.380;2023-04-25T09:53:10;5.00;;;3.40;;
24273;SDS011;12392;42.678;23.380;2023-04-25T09:55:35;2.45;;;2.25;;
24273;SDS011;12392;42.678;23.380;2023-04-25T09:58:05;4.68;;;2.33;;
24273;SDS011;12392;42.678;23.380;2023-04-25T10:00:33;2.58;;;2.30;;
24273;SDS011;12392;42.678;23.380;2023-04-25T10:03:03;3.13;;;2.67;;
24273;SDS011;12392;42.678;23.380;2023-04-25T10:05:32;6.32;;;2.42;;
24273;SDS011;12392;42.678;23.380;2023-04-25T10:07:58;2.63;;;2.10;;
24273;SDS011;12392;42.678;23.380;2023-04-25T10:10:25;2.67;;;1.90;;
24273;SDS011;12392;42.678;23.380;2023-04-25T10:12:53;2.25;;;1.50;;
24273;SDS011;12392;42.678;23.380;2023-04-25T10:15:19;3.72;;;1.90;;
24273;SDS011;12392;42.678;23.380;2023-04-25T10:17:45;2.38;;;1.65;;
24273;SDS011;12392;42.678;23.380;2023-04-25T10:20:11;3.60;;;1.90;;
24273;SDS011;12392;42.678;23.380;2023-04-25T10:22:38;3.85;;;1.75;;
24273;SDS011;12392;42.678;23.380;2023-04-25T10:25:07;6.85;;;2.03;;
24273;SDS011;12392;42.678;23.380;2023-04-25T10:27:34;2.22;;;1.88;;
24273;SDS011;12392;42.678;23.380;2023-04-25T10:30:07;13.00;;;4.78;;
24273;SDS011;12392;42.678;23.380;2023-04-25T10:32:36;16.45;;;9.23;;
24273;SDS011;12392;42.678;23.380;2023-04-25T10:35:11;6.28;;;3.83;;
24273;SDS011;12392;42.678;23.380;2023-04-25T10:37:38;3.55;;;2.47;;
24273;SDS011;12392;42.678;23.380;2023-04-25T10:40:29;4.28;;;1.60;;
24273;SDS011;12392;42.678;23.380;2023-04-25T10:48:49;2.10;;;1.73;;
24273;SDS011;12392;42.678;23.380;2023-04-25T10:51:28;6.20;;;1.65;;
24273;SDS011;12392;42.678;23.380;2023-04-25T10:54:39;3.95;;;1.63;;
24273;SDS011;12392;42.678;23.380;2023-04-25T10:57:06;2.95;;;0.65;;
24273;SDS011;12392;42.678;23.380;2023-04-25T10:59:37;2.35;;;0.60;;
24273;SDS011;12392;42.678;23.380;2023-04-25T11:02:11;1.05;;;0.65;;
24273;SDS011;12392;42.678;23.380;2023-04-25T11:10:09;3.85;;;1.70;;
24273;SDS011;12392;42.678;23.380;2023-04-25T11:12:35;4.80;;;1.25;;
24273;SDS011;12392;42.678;23.380;2023-04-25T11:15:01;2.05;;;1.25;;
24273;SDS011;12392;42.678;23.380;2023-04-25T11:17:28;2.38;;;1.55;;
24273;SDS011;12392;42.678;23.380;2023-04-25T11:19:54;2.05;;;1.20;;
24273;SDS011;12392;42.678;23.380;2023-04-25T11:22:21;6.78;;;1.77;;
24273;SDS011;12392;42.678;23.380;2023-04-25T11:24:47;2.53;;;1.40;;
24273;SDS011;12392;42.678;23.380;2023-04-25T11:27:13;1.80;;;1.17;;
24273;SDS011;12392;42.678;23.380;2023-04-25T11:29:40;4.03;;;1.42;;
24273;SDS011;12392;42.678;23.380;2023-04-25T11:32:06;5.85;;;1.00;;
24273;SDS011;12392;42.678;23.380;2023-04-25T11:34:33;2.72;;;1.02;;
24273;SDS011;12392;42.678;23.380;2023-04-25T11:36:59;0.88;;;0.70;;
24273;SDS011;12392;42.678;23.380;2023-04-25T11:39:27;1.15;;;0.80;;
24273;SDS011;12392;42.678;23.380;2023-04-25T11:41:53;3.10;;;1.50;;
24273;SDS011;12392;42.678;23.380;2023-04-25T11:44:20;2.25;;;1.30;;
24273;SDS011;12392;42.678;23.380;2023-04-25T11:46:46;12.07;;;7.82;;
24273;SDS011;12392;42.678;23.380;2023-04-25T11:49:13;10.57;;;6.45;;
24273;SDS011;12392;42.678;23.380;2023-04-25T11:51:40;3.83;;;2.15;;
24273;SDS011;12392;42.678;23.380;2023-04-25T11:54:06;1.80;;;1.02;;
24273;SDS011;12392;42.678;23.380;2023-04-25T11:56:32;2.03;;;1.38;;
24273;SDS011;12392;42.678;23.380;2023-04-25T11:59:02;1.42;;;0.80;;
24273;SDS011;12392;42.678;23.380;2023-04-25T12:01:29;3.47;;;2.50;;
24273;SDS011;12392;42.678;23.380;2023-04-25T12:03:56;2.38;;;1.88;;
24273;SDS011;12392;42.678;23.380;2023-04-25T12:06:25;3.22;;;0.70;;
24273;SDS011;12392;42.678;23.380;2023-04-25T12:09:01;1.15;;;0.60;;
24273;SDS011;12392;42.678;23.380;2023-04-25T12:11:39;0.98;;;0.50;;
24273;SDS011;12392;42.678;23.380;2023-04-25T12:14:06;0.68;;;0.50;;
24273;SDS011;12392;42.678;23.380;2023-04-25T12:16:42;0.82;;;0.55;;
24273;SDS011;12392;42.678;23.380;2023-04-25T12:19:08;0.40;;;0.22;;
24273;SDS011;12392;42.678;23.380;2023-04-25T12:21:34;0.38;;;0.20;;
24273;SDS011;12392;42.678;23.380;2023-04-25T12:26:58;0.30;;;0.30;;
24273;SDS011;12392;42.678;23.380;2023-04-25T12:29:26;0.55;;;0.40;;
24273;SDS011;12392;42.678;23.380;2023-04-25T12:31:52;4.03;;;0.50;;
24273;SDS011;12392;42.678;23.380;2023-04-25T12:34:19;0.77;;;0.60;;
24273;SDS011;12392;42.678;23.380;2023-04-25T12:36:45;1.77;;;0.60;;
24273;SDS011;12392;42.678;23.380;2023-04-25T12:39:21;0.43;;;0.43;;
24273;SDS011;12392;42.678;23.380;2023-04-25T12:41:48;2.22;;;0.60;;
24273;SDS011;12392;42.678;23.380;2023-04-25T12:44:20;2.03;;;1.00;;
24273;SDS011;12392;42.678;23.380;2023-04-25T12:46:46;3.20;;;0.73;;
24273;SDS011;12392;42.678;23.380;2023-04-25T12:49:12;3.80;;;0.60;;
24273;SDS011;12392;42.678;23.380;2023-04-25T12:51:38;2.42;;;0.80;;
24273;SDS011;12392;42.678;23.380;2023-04-25T12:54:04;1.65;;;0.90;;
24273;SDS011;12392;42.678;23.380;2023-04-25T12:56:32;2.65;;;0.88;;
24273;SDS011;12392;42.678;23.380;2023-04-25T12:58:58;1.27;;;0.77;;
24273;SDS011;12392;42.678;23.380;2023-04-25T13:01:24;3.40;;;0.77;;
24273;SDS011;12392;42.678;23.380;2023-04-25T13:03:51;3.17;;;1.00;;
24273;SDS011;12392;42.678;23.380;2023-04-25T13:06:19;1.42;;;1.05;;
24273;SDS011;12392;42.678;23.380;2023-04-25T13:08:45;2.25;;;1.30;;
24273;SDS011;12392;42.678;23.380;2023-04-25T13:11:10;2.22;;;1.50;;
24273;SDS011;12392;42.678;23.380;2023-04-25T13:13:36;1.80;;;0.90;;
24273;SDS011;12392;42.678;23.380;2023-04-25T13:16:06;2.03;;;0.82;;
24273;SDS011;12392;42.678;23.380;2023-04-25T13:18:32;1.13;;;0.93;;
24273;SDS011;12392;42.678;23.380;2023-04-25T13:20:58;3.95;;;0.95;;
24273;SDS011;12392;42.678;23.380;2023-04-25T13:23:25;1.10;;;0.82;;
24273;SDS011;12392;42.678;23.380;2023-04-25T13:25:52;3.10;;;1.42;;
24273;SDS011;12392;42.678;23.380;2023-04-25T13:28:19;2.47;;;1.00;;
24273;SDS011;12392;42.678;23.380;2023-04-25T13:30:45;2.00;;;0.88;;
24273;SDS011;12392;42.678;23.380;2023-04-25T13:33:12;1.92;;;0.75;;
24273;SDS011;12392;42.678;23.380;2023-04-25T13:35:39;2.38;;;1.00;;
24273;SDS011;12392;42.678;23.380;2023-04-25T13:38:05;2.78;;;1.23;;
24273;SDS011;12392;42.678;23.380;2023-04-25T13:40:31;3.83;;;1.55;;
24273;SDS011;12392;42.678;23.380;2023-04-25T13:42:57;3.08;;;1.05;;
24273;SDS011;12392;42.678;23.380;2023-04-25T13:45:24;7.78;;;1.77;;
24273;SDS011;12392;42.678;23.380;2023-04-25T13:47:50;3.72;;;1.52;;
24273;SDS011;12392;42.678;23.380;2023-04-25T13:50:15;2.65;;;1.40;;
24273;SDS011;12392;42.678;23.380;2023-04-25T13:52:41;2.40;;;1.30;;
24273;SDS011;12392;42.678;23.380;2023-04-25T13:55:08;8.05;;;1.75;;
24273;SDS011;12392;42.678;23.380;2023-04-25T13:57:34;4.00;;;1.27;;
24273;SDS011;12392;42.678;23.380;2023-04-25T14:00:01;4.15;;;1.50;;
24273;SDS011;12392;42.678;23.380;2023-04-25T14:02:32;4.18;;;1.70;;
24273;SDS011;12392;42.678;23.380;2023-04-25T14:04:57;3.78;;;1.90;;
24273;SDS011;12392;42.678;23.380;2023-04-25T14:07:23;4.55;;;1.65;;
24273;SDS011;12392;42.678;23.380;2023-04-25T14:09:49;3.88;;;1.80;;
24273;SDS011;12392;42.678;23.380;2023-04-25T14:12:15;2.88;;;1.58;;
24273;SDS011;12392;42.678;23.380;2023-04-25T14:14:41;2.45;;;1.20;;
24273;SDS011;12392;42.678;23.380;2023-04-25T14:17:07;3.33;;;1.42;;
24273;SDS011;12392;42.678;23.380;2023-04-25T14:19:33;2.20;;;1.08;;
24273;SDS011;12392;42.678;23.380;2023-04-25T14:21:59;1.40;;;1.05;;
24273;SDS011;12392;42.678;23.380;2023-04-25T14:24:25;1.10;;;1.00;;
24273;SDS011;12392;42.678;23.380;2023-04-25T14:26:51;1.02;;;0.70;;
24273;SDS011;12392;42.678;23.380;2023-04-25T14:29:16;2.75;;;0.98;;
24273;SDS011;12392;42.678;23.380;2023-04-25T14:31:42;2.28;;;1.27;;
24273;SDS011;12392;42.678;23.380;2023-04-25T14:34:08;2.88;;;1.13;;
24273;SDS011;12392;42.678;23.380;2023-04-25T14:36:34;2.88;;;0.80;;
24273;SDS011;12392;42.678;23.380;2023-04-25T14:39:00;1.50;;;0.75;;
24273;SDS011;12392;42.678;23.380;2023-04-25T14:41:26;4.78;;;2.67;;
24273;SDS011;12392;42.678;23.380;2023-04-25T14:43:52;0.95;;;0.90;;
24273;SDS011;12392;42.678;23.380;2023-04-25T14:46:18;0.88;;;0.85;;